Flight Track Log - Related Links

Times and Time Zones

All times are in EST time to prevent confusion due to time zone crossing. See the N498QS flight status page for this flight to view local times or setup timezone preferences in your user account.

Time Position Orientation Groundspeed Altitude Reporting Facility
EST Latitude Longitude Course Direction KTS MPH feet Rate Location/Type
Fri 01:47:28 PM 49.1667 -123.1333 121° Southeast 180 207 2,600  Level Vancouver Center
Fri 01:48:28 PM 49.1500 -123.0333 104° East 240 276 5,500 3,200 Climbing Vancouver Center
Fri 01:49:28 PM 49.1167 -122.9500 121° Southeast 270 311 9,000 3,650 Climbing Vancouver Center
Fri 01:50:28 PM 49.0667 -122.8333 123° Southeast 290 334 12,800 3,550 Climbing Vancouver Center
Fri 01:51:28 PM 49.0333 -122.7333 117° Southeast 310 357 16,100 3,038 Climbing Vancouver Center
Fri 01:52:00 PM 49.1589 -123.1056 125° Southeast  Level FlightAware Approximate
Fri 01:53:00 PM 49.0889 -122.9557 121° Southeast  Level FlightAware Approximate
Fri 01:53:06 PM 48.9678 -122.5328 116° Southeast 337 388 20,800  Level Seattle Center
Fri 01:53:28 PM 48.9333 -122.4833 137° Southeast 360 414 21,800 2,415 Climbing Vancouver Center
Fri 01:54:28 PM 48.8667 -122.3333 124° Southeast 390 449 24,100 2,250 Climbing Vancouver Center
Fri 01:55:28 PM 48.8167 -122.1833 117° Southeast 410 472 26,300 2,200 Climbing Vancouver Center
Fri 01:56:28 PM 48.7500 -122.0333 124° Southeast 430 495 28,500 1,800 Climbing Vancouver Center
Fri 01:57:28 PM 48.6833 -121.8500 119° Southeast 450 518 29,900 1,647 Climbing Vancouver Center
Fri 01:58:10 PM 48.6619 -121.7711 112° Southeast 472 543 31,300 2,097 Climbing Seattle Center
Fri 01:59:11 PM 48.5933 -121.6017 121° Southeast 474 545 33,500 2,410 Climbing Seattle Center
Fri 02:00:12 PM 48.5169 -121.4050 120° Southeast 461 531 36,200 2,361 Climbing Seattle Center
Fri 02:01:13 PM 48.4519 -121.2439 121° Southeast 455 524 38,300 1,426 Climbing Seattle Center
Fri 02:02:14 PM 48.3878 -121.0842 121° Southeast 451 519 39,100 836 Climbing Seattle Center
Fri 02:03:15 PM 48.3225 -120.9225 121° Southeast 454 522 40,000 836 Climbing Seattle Center
Fri 02:04:16 PM 48.2608 -120.7772 122° Southeast 459 528 40,800 496 Climbing Seattle Center
Fri 02:05:16 PM 48.1914 -120.6114 122° Southeast 467 537 41,000 99 Climbing Seattle Center
Fri 02:06:17 PM 48.0950 -120.4250 128° Southeast 472 543 41,000  Level Seattle Center
Fri 02:07:18 PM 48.0014 -120.2942 137° Southeast 462 532 41,000  Level Seattle Center
Fri 02:08:19 PM 47.9072 -120.1661 138° Southeast 460 529 41,000  Level Seattle Center
Fri 02:09:20 PM 47.8131 -120.0386 138° Southeast 460 529 41,000  Level Seattle Center
Fri 02:10:20 PM 47.7183 -119.9100 138° Southeast 461 531 41,000  Level Seattle Center
Fri 02:11:21 PM 47.6233 -119.7822 138° Southeast 462 532 41,000  Level Seattle Center
Fri 02:12:22 PM 47.5289 -119.6544 138° Southeast 462 532 41,000  Level Seattle Center
Fri 02:13:23 PM 47.4344 -119.5286 138° Southeast 462 532 41,000  Level Seattle Center
Fri 02:14:24 PM 47.3394 -119.4011 138° Southeast 462 532 41,000  Level Seattle Center
Fri 02:15:25 PM 47.2422 -119.2742 138° Southeast 468 539 41,000  Level Seattle Center
Fri 02:16:25 PM 47.1461 -119.1469 138° Southeast 467 537 41,000  Level Seattle Center
Fri 02:17:26 PM 47.0481 -119.0200 139° Southeast 470 541 41,000  Level Seattle Center
Fri 02:18:27 PM 46.9511 -118.8936 138° Southeast 469 540 41,000  Level Seattle Center
Fri 02:19:28 PM 46.8369 -118.7456 138° Southeast 463 533 41,000  Level Seattle Center
Fri 02:20:29 PM 46.7419 -118.6242 139° Southeast 458 527 41,000  Level Seattle Center
Fri 02:21:30 PM 46.6481 -118.5047 139° Southeast 453 521 41,000  Level Seattle Center
Fri 02:22:30 PM 46.5533 -118.3839 139° Southeast 454 522 41,000  Level Seattle Center
Fri 02:23:31 PM 46.4578 -118.2631 139° Southeast 457 526 41,000  Level Seattle Center
Fri 02:24:32 PM 46.3622 -118.1433 139° Southeast 457 526 41,000  Level Seattle Center
Fri 02:25:33 PM 46.2667 -118.0233 139° Southeast 457 526 41,000  Level Seattle Center
Fri 02:26:34 PM 46.1700 -117.9014 139° Southeast 461 531 41,000  Level Seattle Center
Fri 02:27:34 PM 46.0728 -117.7817 139° Southeast 462 532 41,000  Level Seattle Center
Fri 02:28:35 PM 45.9764 -117.6622 139° Southeast 460 529 41,000  Level Seattle Center
Fri 02:29:36 PM 45.8803 -117.5439 139° Southeast 458 527 41,000  Level Seattle Center
Fri 02:30:37 PM 45.7844 -117.4250 139° Southeast 457 526 41,000  Level Seattle Center
Fri 02:31:38 PM 45.6683 -117.2839 140° Southeast 457 526 41,000  Level Seattle Center
Fri 02:32:39 PM 45.5822 -117.1800 140° Southeast 457 526 41,000  Level Seattle Center
Fri 02:33:39 PM 45.4742 -117.0486 140° Southeast 457 526 41,000  Level Seattle Center
Fri 02:34:40 PM 45.3792 -116.9358 140° Southeast 461 531 41,000  Level Seattle Center
Fri 02:35:41 PM 45.2853 -116.8219 140° Southeast 462 532 41,000  Level Seattle Center
Fri 02:36:42 PM 45.1744 -116.6897 140° Southeast 465 535 41,000  Level Seattle Center
Fri 02:37:43 PM 45.0789 -116.5764 140° Southeast 466 536 41,000  Level Seattle Center
Fri 02:38:44 PM 44.9844 -116.4642 140° Southeast 465 535 41,000  Level Seattle Center
Fri 02:39:44 PM 44.8792 -116.3161 135° Southeast 481 554 41,000  Level Seattle Center
Fri 02:39:59 PM 44.8667 -116.2931 127° Southeast 479 551 41,000  Level Salt Lake Center
Fri 02:41:01 PM 44.7817 -116.1089 123° Southeast 496 571 41,000  Level Salt Lake Center
Fri 02:42:03 PM 44.7075 -115.9517 124° Southeast 498 573 41,000  Level Salt Lake Center
Fri 02:43:04 PM 44.6322 -115.7950 124° Southeast 499 574 41,000  Level Salt Lake Center
Fri 02:44:06 PM 44.5453 -115.6111 124° Southeast 502 578 41,000  Level Salt Lake Center
Fri 02:45:07 PM 44.4711 -115.4567 124° Southeast 499 574 41,000  Level Salt Lake Center
Fri 02:46:09 PM 44.3853 -115.2792 124° Southeast 494 568 41,000  Level Salt Lake Center
Fri 02:47:11 PM 44.3108 -115.1267 124° Southeast 494 568 41,000  Level Salt Lake Center
Fri 02:48:12 PM 44.2361 -114.9731 124° Southeast 497 572 41,000  Level Salt Lake Center
Fri 02:49:14 PM 44.1483 -114.7933 124° Southeast 500 575 41,000  Level Salt Lake Center
Fri 02:50:15 PM 44.0725 -114.6408 125° Southeast 501 577 41,000  Level Salt Lake Center
Fri 02:51:17 PM 43.9825 -114.4664 126° Southeast 498 573 41,000  Level Salt Lake Center
Fri 02:52:18 PM 43.9078 -114.3153 124° Southeast 497 572 41,000  Level Salt Lake Center
Fri 02:53:20 PM 43.8322 -114.1631 124° Southeast 499 574 41,000  Level Salt Lake Center
Fri 02:54:21 PM 43.7428 -113.9850 125° Southeast 502 578 41,000  Level Salt Lake Center
Fri 02:55:23 PM 43.6619 -113.8261 125° Southeast 506 582 41,000  Level Salt Lake Center
Fri 02:56:24 PM 43.5825 -113.6722 125° Southeast 512 589 41,000  Level Salt Lake Center
Fri 02:57:26 PM 43.4908 -113.4944 125° Southeast 511 588 41,000  Level Salt Lake Center
Fri 02:58:27 PM 43.4131 -113.3450 126° Southeast 506 582 41,000  Level Salt Lake Center
Fri 02:59:29 PM 43.3233 -113.1733 126° Southeast 499 574 41,000  Level Salt Lake Center
Fri 03:00:31 PM 43.2467 -113.0250 125° Southeast 498 573 41,000  Level Salt Lake Center
Fri 03:01:32 PM 43.1553 -112.8519 126° Southeast 501 577 41,000  Level Salt Lake Center
Fri 03:02:34 PM 43.0758 -112.7022 126° Southeast 506 582 41,000  Level Salt Lake Center
Fri 03:03:35 PM 42.9950 -112.5514 126° Southeast 511 588 41,000  Level Salt Lake Center
Fri 03:04:37 PM 42.9008 -112.3747 126° Southeast 515 593 41,000  Level Salt Lake Center
Fri 03:05:38 PM 42.8197 -112.2244 126° Southeast 515 593 41,000  Level Salt Lake Center
Fri 03:06:40 PM 42.7244 -112.0478 126° Southeast 518 596 41,000  Level Salt Lake Center
Fri 03:07:42 PM 42.6458 -111.9061 127° Southeast 516 594 41,000  Level Salt Lake Center
Fri 03:08:43 PM 42.5625 -111.7519 126° Southeast 510 587 41,000  Level Salt Lake Center
Fri 03:09:45 PM 42.4786 -111.6003 127° Southeast 505 581 41,000  Level Salt Lake Center
Fri 03:10:46 PM 42.3794 -111.4214 127° Southeast 498 573 41,000  Level Salt Lake Center
Fri 03:11:48 PM 42.2964 -111.2731 127° Southeast 496 571 41,000  Level Salt Lake Center
Fri 03:12:49 PM 42.2125 -111.1222 127° Southeast 499 574 41,000 293 Level Salt Lake Center
Fri 03:13:51 PM 42.1278 -110.9717 127° Southeast 502 578 41,600 581 Climbing Salt Lake Center
Fri 03:14:53 PM 42.0469 -110.8267 127° Southeast 504 580 42,200 683 Climbing Salt Lake Center
Fri 03:15:54 PM 41.9514 -110.6594 128° Southeast 506 582 43,000 390 Climbing Salt Lake Center
Fri 03:16:56 PM 41.8700 -110.5169 127° Southeast 504 580 43,000  Level Salt Lake Center
Fri 03:17:58 PM 41.7750 -110.3511 127° Southeast 504 580 43,000  Level Salt Lake Center
Fri 03:18:59 PM 41.6933 -110.2086 127° Southeast 504 580 43,000  Level Salt Lake Center
Fri 03:20:01 PM 41.5983 -110.0456 128° Southeast 501 577 43,000  Level Salt Lake Center
Fri 03:21:02 PM 41.5167 -109.9039 128° Southeast 503 579 43,000  Level Salt Lake Center
Fri 03:22:04 PM 41.4200 -109.7386 128° Southeast 507 583 43,000  Level Salt Lake Center
Fri 03:23:06 PM 41.3369 -109.5981 128° Southeast 508 585 43,000  Level Salt Lake Center
Fri 03:24:07 PM 41.2667 -109.4439 121° Southeast 517 595 43,000  Level Salt Lake Center
Fri 03:25:09 PM 41.1903 -109.2614 119° Southeast 512 589 43,000  Level Salt Lake Center
Fri 03:26:10 PM 41.1239 -109.1044 119° Southeast 515 593 43,000  Level Salt Lake Center
Fri 03:27:12 PM 41.0469 -108.9214 119° Southeast 514 592 43,000  Level Salt Lake Center
Fri 03:28:13 PM 40.9817 -108.7653 119° Southeast 512 589 43,000  Level Salt Lake Center
Fri 03:29:15 PM 40.9042 -108.5792 119° Southeast 515 593 43,000  Level Salt Lake Center
Fri 03:30:16 PM 40.8367 -108.4231 120° Southeast 515 593 43,000  Level Salt Lake Center
Fri 03:31:28 PM 40.7483 -108.2147 119° Southeast 508 585 43,000  Level Denver Center
Fri 03:32:30 PM 40.6619 -108.0797 130° Southeast 492 566 43,000  Level Denver Center
Fri 03:33:32 PM 40.5617 -107.9261 131° Southeast 493 567 43,000  Level Denver Center
Fri 03:34:34 PM 40.4756 -107.7964 131° Southeast 491 565 43,000  Level Denver Center
Fri 03:35:35 PM 40.3889 -107.6647 131° Southeast 494 568 43,000  Level Denver Center
Fri 03:36:37 PM 40.2867 -107.5092 131° Southeast 501 577 43,000  Level Denver Center
Fri 03:37:39 PM 40.1983 -107.3756 131° Southeast 504 580 43,000  Level Denver Center
Fri 03:38:41 PM 40.0939 -107.2200 131° Southeast 507 583 43,000  Level Denver Center
Fri 03:39:43 PM 40.0053 -107.0889 131° Southeast 504 580 43,000  Level Denver Center
Fri 03:40:45 PM 39.9100 -106.9469 131° Southeast 503 579 43,000  Level Denver Center
Fri 03:41:47 PM 39.8164 -106.8086 131° Southeast 503 579 43,000  Level Denver Center
Fri 03:42:49 PM 39.7236 -106.6703 131° Southeast 503 579 43,000  Level Denver Center
Fri 03:43:51 PM 39.6211 -106.5219 132° Southeast 503 579 43,000  Level Denver Center
Fri 03:44:53 PM 39.5364 -106.3975 131° Southeast 498 573 43,000  Level Denver Center
Fri 03:45:55 PM 39.4442 -106.2622 131° Southeast 497 572 43,000  Level Denver Center
Fri 03:46:57 PM 39.3406 -106.1133 132° Southeast 496 571 43,000  Level Denver Center
Fri 03:47:59 PM 39.2483 -105.9808 132° Southeast 494 568 43,000  Level Denver Center
Fri 03:49:01 PM 39.1556 -105.8486 132° Southeast 495 570 43,000  Level Denver Center
Fri 03:50:03 PM 39.0486 -105.6950 132° Southeast 491 565 43,000  Level Denver Center
Fri 03:51:04 PM 38.9583 -105.5656 132° Southeast 487 560 43,000  Level Denver Center
Fri 03:52:06 PM 38.8681 -105.4383 132° Southeast 482 555 43,000  Level Denver Center
Fri 03:53:08 PM 38.7769 -105.3100 132° Southeast 484 557 43,000  Level Denver Center
Fri 03:54:10 PM 38.6853 -105.1800 132° Southeast 488 562 43,000  Level Denver Center
Fri 03:55:12 PM 38.5917 -105.0503 133° Southeast 492 566 43,000  Level Denver Center
Fri 03:56:14 PM 38.4986 -104.9192 132° Southeast 494 568 43,000  Level Denver Center
Fri 03:57:16 PM 38.3897 -104.7664 132° Southeast 495 570 43,000  Level Denver Center
Fri 03:58:18 PM 38.3031 -104.6483 133° Southeast 496 571 43,000  Level Denver Center
Fri 03:59:20 PM 38.1972 -104.5025 133° Southeast 500 575 43,000  Level Denver Center
Fri 04:00:22 PM 38.1056 -104.3783 133° Southeast 502 578 43,000  Level Denver Center
Fri 04:01:24 PM 37.9975 -104.2322 133° Southeast 505 581 43,000  Level Denver Center
Fri 04:02:26 PM 37.9050 -104.1064 133° Southeast 507 583 43,000  Level Denver Center
Fri 04:03:28 PM 37.8117 -103.9800 133° Southeast 508 585 43,000  Level Denver Center
Fri 04:04:30 PM 37.7036 -103.8336 133° Southeast 503 579 43,000  Level Denver Center
Fri 04:05:32 PM 37.6100 -103.7081 133° Southeast 505 581 43,000  Level Denver Center
Fri 04:06:34 PM 37.5022 -103.5644 133° Southeast 501 577 43,000  Level Denver Center
Fri 04:07:36 PM 37.4097 -103.4414 133° Southeast 503 579 43,000  Level Denver Center
Fri 04:08:22 PM 37.3333 -103.3403 134° Southeast 501 577 43,000  Level Albuquerque Center
Fri 04:09:23 PM 37.2414 -103.2181 133° Southeast 501 577 43,000  Level Albuquerque Center
Fri 04:10:25 PM 37.1314 -103.0761 134° Southeast 505 581 43,000  Level Albuquerque Center
Fri 04:11:27 PM 37.0389 -102.9536 133° Southeast 506 582 43,000  Level Albuquerque Center
Fri 04:12:29 PM 36.9306 -102.8114 134° Southeast 505 581 43,000  Level Albuquerque Center
Fri 04:13:31 PM 36.8375 -102.6917 134° Southeast 503 579 43,000  Level Albuquerque Center
Fri 04:14:33 PM 36.7297 -102.5522 134° Southeast 500 575 43,000  Level Albuquerque Center
Fri 04:15:35 PM 36.6428 -102.4400 134° Southeast 499 574 43,000  Level Albuquerque Center
Fri 04:16:37 PM 36.5467 -102.3158 134° Southeast 498 573 43,000  Level Albuquerque Center
Fri 04:17:39 PM 36.4511 -102.1933 134° Southeast 495 570 43,000  Level Albuquerque Center
Fri 04:18:41 PM 36.3344 -102.0453 134° Southeast 497 572 43,000  Level Albuquerque Center
Fri 04:19:43 PM 36.2367 -101.9222 135° Southeast 499 574 43,000  Level Albuquerque Center
Fri 04:20:45 PM 36.1389 -101.7986 134° Southeast 500 575 43,000  Level Albuquerque Center
Fri 04:21:47 PM 36.0414 -101.6731 134° Southeast 502 578 43,000  Level Albuquerque Center
Fri 04:22:49 PM 35.9569 -101.5319 126° Southeast 502 578 43,000  Level Albuquerque Center
Fri 04:23:51 PM 35.8708 -101.3933 127° Southeast 505 581 43,000  Level Albuquerque Center
Fri 04:24:53 PM 35.7842 -101.2553 128° Southeast 505 581 43,000  Level Albuquerque Center
Fri 04:25:55 PM 35.6819 -101.0908 127° Southeast 502 578 43,000  Level Albuquerque Center
Fri 04:26:57 PM 35.5967 -100.9547 128° Southeast 501 577 43,000  Level Albuquerque Center
Fri 04:27:59 PM 35.5111 -100.8181 128° Southeast 501 577 43,000  Level Albuquerque Center
Fri 04:29:01 PM 35.4253 -100.6825 128° Southeast 501 577 43,000  Level Albuquerque Center
Fri 04:30:03 PM 35.3333 -100.5383 128° Southeast 501 577 43,000  Level Albuquerque Center
Fri 04:31:05 PM 35.2472 -100.4019 128° Southeast 503 579 43,000  Level Albuquerque Center
Fri 04:32:07 PM 35.1600 -100.2669 128° Southeast 505 581 43,000  Level Albuquerque Center
Fri 04:33:09 PM 35.0728 -100.1311 128° Southeast 508 585 43,000  Level Albuquerque Center
Fri 04:34:11 PM 34.9861 -99.9953 128° Southeast 508 585 43,000  Level Albuquerque Center
Fri 04:35:13 PM 34.8819 -99.8353 128° Southeast 504 580 43,000  Level Albuquerque Center
Fri 04:35:54 PM 34.8233 -99.7481 129° Southeast 505 581 43,000 -832 Level Fort Worth Center
Fri 04:36:54 PM 34.7361 -99.6119 128° Southeast 505 581 41,600 -1,700 Descending Fort Worth Center
Fri 04:37:54 PM 34.6464 -99.4808 130° Southeast 505 581 39,600 -2,000 Descending Fort Worth Center
Fri 04:38:54 PM 34.5611 -99.3450 127° Southeast 505 581 37,600 -2,000 Descending Fort Worth Center
Fri 04:39:54 PM 34.4753 -99.2147 129° Southeast 505 581 35,600 -2,000 Descending Fort Worth Center
Fri 04:40:54 PM 34.3875 -99.0819 129° Southeast 505 581 33,600 -2,000 Descending Fort Worth Center
Fri 04:41:54 PM 34.2994 -98.9469 128° Southeast 505 581 31,600 -2,050 Descending Fort Worth Center
Fri 04:42:54 PM 34.2092 -98.8147 130° Southeast 505 581 29,500 -2,000 Descending Fort Worth Center
Fri 04:43:54 PM 34.1250 -98.6881 129° Southeast 505 581 27,600 -1,250 Descending Fort Worth Center
Fri 04:44:54 PM 34.0469 -98.5792 131° Southeast 495 570 27,000 -600 Descending Fort Worth Center
Fri 04:45:54 PM 33.9561 -98.4653 134° Southeast 480 552 26,400 -500 Descending Fort Worth Center
Fri 04:46:54 PM 33.8269 -98.4311 168° South 457 526 26,000 -650 Descending Fort Worth Center
Fri 04:47:54 PM 33.6997 -98.4022 169° South 462 532 25,100 -1,000 Descending Fort Worth Center
Fri 04:48:54 PM 33.5961 -98.3086 143° Southeast 456 525 24,000 -1,500 Descending Fort Worth Center
Fri 04:49:54 PM 33.5408 -98.1586 114° Southeast 431 496 22,100 -2,550 Descending Fort Worth Center
Fri 04:50:54 PM 33.4997 -98.0211 110° East 431 496 18,900 -3,000 Descending Fort Worth Center
Fri 04:51:16 PM 33.4911 -97.9761 103° East 434 499 18,000 -2,429 Descending FAA TRACON SMA TRACON (SMA)
Fri 04:51:36 PM 33.4783 -97.9350 110° East 431 496 17,200 -2,850 Descending FAA TRACON SMA TRACON (SMA)
Fri 04:51:56 PM 33.4625 -97.8847 111° Southeast 424 488 16,100 -2,714 Descending FAA TRACON SMA TRACON (SMA)
Fri 04:52:18 PM 33.4492 -97.8461 112° Southeast 413 475 15,300 -2,780 Descending FAA TRACON SMA TRACON (SMA)
Fri 04:52:37 PM 33.4347 -97.7972 109° East 405 466 14,200 -2,923 Descending FAA TRACON SMA TRACON (SMA)
Fri 04:52:57 PM 33.4219 -97.7603 112° Southeast 398 458 13,400 -2,143 Descending FAA TRACON SMA TRACON (SMA)
Fri 04:53:19 PM 33.4111 -97.7233 109° East 388 447 12,700 -2,429 Descending FAA TRACON SMA TRACON (SMA)
Fri 04:53:39 PM 33.3953 -97.6808 114° Southeast 371 427 11,700 -2,684 Descending FAA TRACON SMA TRACON (SMA)
Fri 04:53:57 PM 33.3814 -97.6492 118° Southeast 355 409 11,000 -1,579 Descending FAA TRACON SMA TRACON (SMA)
Fri 04:54:17 PM 33.3639 -97.6222 128° Southeast 337 388 10,700 -1,200 Descending FAA TRACON SMA TRACON (SMA)
Fri 04:54:37 PM 33.3461 -97.5975 131° Southeast 323 372 10,200 -1,650 Descending FAA TRACON SMA TRACON (SMA)
Fri 04:54:57 PM 33.3225 -97.5697 135° Southeast 310 357 9,600 -1,650 Descending FAA TRACON SMA TRACON (SMA)
Fri 04:55:17 PM 33.3050 -97.5469 133° Southeast 303 349 9,100 -1,500 Descending FAA TRACON SMA TRACON (SMA)
Fri 04:55:37 PM 33.2892 -97.5231 128° Southeast 299 344 8,600 -1,800 Descending FAA TRACON SMA TRACON (SMA)
Fri 04:55:57 PM 33.2742 -97.4894 118° Southeast 298 343 7,900 -1,650 Descending FAA TRACON SMA TRACON (SMA)
Fri 04:56:17 PM 33.2656 -97.4614 110° East 296 341 7,500 -1,500 Descending FAA TRACON SMA TRACON (SMA)
Fri 04:56:37 PM 33.2569 -97.4336 110° East 291 335 6,900 -1,950 Descending FAA TRACON SMA TRACON (SMA)
Fri 04:56:57 PM 33.2472 -97.3989 109° East 287 330 6,200 -1,800 Descending FAA TRACON SMA TRACON (SMA)
Fri 04:57:17 PM 33.2392 -97.3714 109° East 286 329 5,700 -1,500 Descending FAA TRACON SMA TRACON (SMA)
Fri 04:57:37 PM 33.2308 -97.3442 110° East 284 327 5,200 -1,200 Descending FAA TRACON SMA TRACON (SMA)
Fri 04:57:57 PM 33.2211 -97.3108 109° East 279 321 4,900 -450 Descending FAA TRACON SMA TRACON (SMA)
Fri 04:58:17 PM 33.2133 -97.2844 109° East 274 315 4,900  Level FAA TRACON SMA TRACON (SMA)
Fri 04:58:37 PM 33.2056 -97.2581 109° East 274 315 4,900  Level FAA TRACON SMA TRACON (SMA)
Fri 04:58:57 PM 33.1961 -97.2258 109° East 271 312 4,900  Level FAA TRACON SMA TRACON (SMA)
Fri 04:59:17 PM 33.1883 -97.1997 110° East 270 311 4,900  Level FAA TRACON SMA TRACON (SMA)
Fri 04:59:37 PM 33.1811 -97.1753 109° East 261 300 4,900 -450 Level FAA TRACON SMA TRACON (SMA)
Fri 04:59:57 PM 33.1725 -97.1464 110° East 245 282 4,600 -1,000 Descending FAA TRACON SMA TRACON (SMA)
Fri 05:00:37 PM 33.1592 -97.1006 109° East 237 273 3,900 -1,119 Descending FAA TRACON SMA TRACON (SMA)
Fri 05:00:56 PM 33.1481 -97.0758 118° Southeast 229 264 3,500 -1,050 Descending FAA TRACON SMA TRACON (SMA)
Fri 05:01:17 PM 33.1333 -97.0639 146° Southeast 216 249 3,200 -585 Descending FAA TRACON SMA TRACON (SMA)
Fri 05:01:37 PM 33.1181 -97.0558 156° South 200 230 3,100 -462 Descending FAA TRACON SMA TRACON (SMA)
Fri 05:01:56 PM 33.1003 -97.0556 179° South 174 200 2,900 -300 Descending FAA TRACON SMA TRACON (SMA)
Fri 05:02:17 PM 33.0867 -97.0547 177° South 159 183 2,900  Level FAA TRACON SMA TRACON (SMA)
Fri 05:02:37 PM 33.0722 -97.0547 180° South 163 188 2,900  Level FAA TRACON SMA TRACON (SMA)
Fri 05:02:56 PM 33.0581 -97.0547 180° South 165 190 2,900  Level FAA TRACON SMA TRACON (SMA)
Fri 05:03:16 PM 33.0417 -97.0547 180° South 156 180 2,900 -286 Level FAA TRACON SMA TRACON (SMA)
Fri 05:03:38 PM 33.0281 -97.0547 180° South 156 180 2,700 -750 Descending FAA TRACON SMA TRACON (SMA)
Fri 05:03:56 PM 33.0142 -97.0547 180° South 160 184 2,400 -923 Descending FAA TRACON SMA TRACON (SMA)
Fri 05:04:17 PM 32.9992 -97.0547 180° South 144 166 2,100 -732 Descending FAA TRACON SMA TRACON (SMA)
Fri 05:04:37 PM 32.9881 -97.0547 180° South 129 148 1,900 -600 Descending FAA TRACON SMA TRACON (SMA)
Fri 05:04:57 PM 32.9742 -97.0547 180° South 129 148 1,700 -600 Descending FAA TRACON SMA TRACON (SMA)
Fri 05:05:17 PM 32.9631 -97.0547 180° South 128 147 1,500 -600 Descending FAA TRACON SMA TRACON (SMA)
Fri 05:05:37 PM 32.9514 -97.0547 180° South 132 152 1,300 -750 Descending FAA TRACON SMA TRACON (SMA)
Fri 05:05:57 PM 32.9378 -97.0550 181° South 130 150 1,000 -750 Descending FAA TRACON SMA TRACON (SMA)
Fri 05:06:17 PM 32.9272 -97.0553 181° South 123 142 800 -450 Descending FAA TRACON SMA TRACON (SMA)
Fri 05:06:37 PM 32.9194 -97.0553 180° South 123 142 700 -300 Descending FAA TRACON SMA TRACON (SMA)
Fri 05:08:00 PM 32.8968 -97.0380 176° South  Level Estimated
Fri 05:15:00 PM 32.8968 -97.0380 176° South  Level Estimated

Login

Don't have an account? Register now (free) for customized features, flight alerts, and more!